Time;durP1;ratioP1;P1;durP2;ratioP2;P2;SDS_P1;SDS_P2;PMS_P1;PMS_P2;Temp;Humidity;BMP_temperature;BMP_pressure;BME280_temperature;BME280_humidity;BME280_pressure;Samples;Min_cycle;Max_cycle;Signal;HPM_P1;HPM_P2
2021/12/03 00:00:09;;;;;;;6.32;1.80;;;-0.40;99.90;;;;;;4864689;29;20558;-74
2021/12/03 00:02:35;;;;;;;4.68;1.70;;;-0.90;99.90;;;;;;4862167;29;20128;-76
2021/12/03 00:05:00;;;;;;;6.18;1.60;;;-0.90;99.90;;;;;;4863252;29;20057;-75
2021/12/03 00:07:26;;;;;;;4.32;1.70;;;-0.90;99.90;;;;;;4861981;29;20049;-75
2021/12/03 00:09:51;;;;;;;4.57;1.77;;;-0.80;99.90;;;;;;4863550;29;20045;-74
2021/12/03 00:12:17;;;;;;;5.93;1.98;;;-0.80;99.90;;;;;;4877317;29;20414;-75
2021/12/03 00:14:43;;;;;;;5.15;1.60;;;-0.80;99.90;;;;;;4862640;29;20049;-75
2021/12/03 00:17:08;;;;;;;7.10;1.90;;;-0.80;99.90;;;;;;4861700;29;20057;-76
2021/12/03 00:19:34;;;;;;;6.32;2.33;;;-0.80;99.90;;;;;;4877519;29;20516;-75
2021/12/03 00:22:00;;;;;;;4.90;1.92;;;-0.50;99.90;;;;;;4862967;29;20511;-75
2021/12/03 00:24:25;;;;;;;6.70;1.95;;;0.40;99.90;;;;;;4863062;29;20085;-79
2021/12/03 00:26:51;;;;;;;4.50;1.80;;;-0.70;99.90;;;;;;4862938;29;20124;-78
2021/12/03 00:29:17;;;;;;;6.22;1.70;;;-0.60;99.90;;;;;;4862452;29;20041;-74
2021/12/03 00:31:42;;;;;;;4.20;1.75;;;-0.70;99.90;;;;;;4862533;29;20490;-79
2021/12/03 00:34:08;;;;;;;5.63;1.92;;;-0.70;99.90;;;;;;4877045;29;20482;-80
2021/12/03 00:36:34;;;;;;;6.95;1.90;;;-0.60;99.90;;;;;;4877030;29;20149;-73
2021/12/03 00:39:00;;;;;;;3.83;1.67;;;-0.60;99.90;;;;;;4861329;29;20126;-78
2021/12/03 00:41:32;;;;;;;6.63;2.15;;;-0.60;99.90;;;;;;4877220;29;20064;-81
2021/12/03 00:43:57;;;;;;;7.43;2.00;;;-0.50;99.90;;;;;;4846030;29;20414;-79
2021/12/03 00:46:23;;;;;;;9.43;2.38;;;-0.50;99.90;;;;;;4876088;29;20050;-76
2021/12/03 00:48:52;;;;;;;4.95;2.13;;;-0.50;99.90;;;;;;4862487;29;20052;-78
2021/12/03 00:51:21;;;;;;;6.97;2.92;;;-0.40;99.90;;;;;;4862626;29;20053;-75
2021/12/03 00:53:47;;;;;;;5.22;2.10;;;-0.40;99.90;;;;;;4862522;29;20057;-75
2021/12/03 00:56:13;;;;;;;5.22;1.92;;;-0.30;99.90;;;;;;4862477;29;20128;-81
2021/12/03 00:58:39;;;;;;;5.75;1.90;;;-0.30;99.90;;;;;;4862402;29;20052;-78
2021/12/03 01:01:06;;;;;;;5.85;1.88;;;-0.30;99.90;;;;;;4875927;29;20418;-76
2021/12/03 01:03:33;;;;;;;7.38;2.10;;;-0.30;99.90;;;;;;4876487;29;20053;-75
2021/12/03 01:05:59;;;;;;;6.55;2.03;;;-0.30;99.90;;;;;;4861990;29;20137;-75
2021/12/03 01:08:25;;;;;;;6.63;2.10;;;-0.30;99.90;;;;;;4862321;29;20137;-76
2021/12/03 01:10:51;;;;;;;6.05;2.15;;;-0.30;99.90;;;;;;4862670;29;20053;-74
2021/12/03 01:13:17;;;;;;;4.65;1.70;;;-0.20;99.90;;;;;;4864668;29;20565;-75
2021/12/03 01:15:43;;;;;;;7.35;2.20;;;-0.20;99.90;;;;;;4862398;29;20050;-74
2021/12/03 01:18:11;;;;;;;6.25;2.10;;;-0.20;99.90;;;;;;4861927;29;20045;-73
2021/12/03 01:20:38;;;;;;;11.57;2.17;;;-0.10;99.90;;;;;;4862135;29;20414;-75
2021/12/03 01:23:05;;;;;;;6.82;2.25;;;-0.10;99.90;;;;;;4860801;29;20053;-74
2021/12/03 01:25:31;;;;;;;7.07;2.20;;;-0.10;99.90;;;;;;4862078;29;20054;-76
2021/12/03 01:27:59;;;;;;;7.32;2.40;;;0.00;99.90;;;;;;4864211;29;20062;-78
2021/12/03 01:30:24;;;;;;;6.65;2.33;;;0.00;99.90;;;;;;4862904;29;20165;-73
2021/12/03 01:32:50;;;;;;;7.38;2.35;;;0.00;99.90;;;;;;4861255;29;20124;-77
2021/12/03 01:35:17;;;;;;;7.75;2.17;;;0.00;99.90;;;;;;4861813;29;20105;-76
2021/12/03 01:37:44;;;;;;;10.25;2.85;;;0.10;99.90;;;;;;4861785;29;20045;-78
2021/12/03 01:40:15;;;;;;;8.77;3.45;;;0.10;99.90;;;;;;4861515;29;20053;-75
2021/12/03 01:42:44;;;;;;;8.10;2.60;;;0.10;99.90;;;;;;4861511;29;20060;-80
2021/12/03 01:45:10;;;;;;;9.75;2.90;;;0.10;99.90;;;;;;4861530;29;20061;-76
2021/12/03 01:47:36;;;;;;;8.48;3.05;;;0.10;99.90;;;;;;4861106;29;20486;-73
2021/12/03 01:50:03;;;;;;;9.07;2.97;;;0.10;99.90;;;;;;4861270;29;20050;-74
2021/12/03 01:52:29;;;;;;;7.85;3.20;;;0.20;99.90;;;;;;4861465;29;20128;-75
2021/12/03 01:54:56;;;;;;;11.73;3.25;;;0.20;99.90;;;;;;4861644;29;20457;-76
2021/12/03 01:57:22;;;;;;;10.55;4.03;;;0.20;99.90;;;;;;4861299;29;20097;-78
2021/12/03 01:59:47;;;;;;;7.18;3.42;;;0.20;99.90;;;;;;4861201;29;20399;-73
2021/12/03 02:02:13;;;;;;;8.65;3.30;;;0.20;99.90;;;;;;4861545;29;20069;-73
2021/12/03 02:04:39;;;;;;;7.95;2.95;;;0.20;99.90;;;;;;4860860;29;20072;-81
2021/12/03 02:07:07;;;;;;;10.52;3.65;;;0.20;99.90;;;;;;4859878;29;20118;-75
2021/12/03 02:09:33;;;;;;;10.07;3.47;;;1.00;99.90;;;;;;4861165;29;20045;-74
2021/12/03 02:11:59;;;;;;;9.52;3.75;;;0.20;99.90;;;;;;4861126;29;20079;-72
2021/12/03 02:14:25;;;;;;;9.45;3.55;;;0.20;99.90;;;;;;4861038;29;20049;-72
2021/12/03 02:16:50;;;;;;;11.23;3.83;;;0.20;99.90;;;;;;4874221;29;20065;-72
2021/12/03 02:19:17;;;;;;;10.05;3.20;;;0.10;99.90;;;;;;4859725;29;20060;-78
2021/12/03 02:21:44;;;;;;;7.40;3.00;;;0.20;99.90;;;;;;4860981;29;20050;-73
2021/12/03 02:24:10;;;;;;;12.00;4.30;;;0.10;99.90;;;;;;4859016;29;20085;-69
2021/12/03 02:26:36;;;;;;;10.50;3.45;;;0.20;99.90;;;;;;4861056;29;20088;-73
2021/12/03 02:29:02;;;;;;;8.77;3.42;;;0.10;99.90;;;;;;4860936;29;20049;-73
2021/12/03 02:31:28;;;;;;;8.10;3.00;;;0.10;99.90;;;;;;4860795;29;20542;-72
2021/12/03 02:33:54;;;;;;;12.68;3.47;;;0.20;99.90;;;;;;4860986;29;20053;-72
2021/12/03 02:36:20;;;;;;;7.95;3.40;;;0.10;99.90;;;;;;4859057;29;20518;-72
2021/12/03 02:38:46;;;;;;;12.00;4.50;;;0.20;99.90;;;;;;4860638;29;20132;-75
2021/12/03 02:41:14;;;;;;;9.57;4.32;;;0.20;99.90;;;;;;4860566;29;20145;-76
2021/12/03 02:43:39;;;;;;;11.18;4.60;;;0.20;99.90;;;;;;4859487;29;20049;-71
2021/12/03 02:46:05;;;;;;;10.07;3.88;;;0.20;99.90;;;;;;4860414;29;20465;-75
2021/12/03 02:48:32;;;;;;;10.07;4.50;;;0.20;99.90;;;;;;4860863;29;20044;-76
2021/12/03 02:50:58;;;;;;;11.02;5.13;;;0.20;99.90;;;;;;4860505;29;20065;-72
2021/12/03 02:53:24;;;;;;;12.05;4.93;;;0.20;99.90;;;;;;4860558;29;20045;-72
2021/12/03 02:55:51;;;;;;;12.65;5.18;;;0.20;99.90;;;;;;4860690;29;20057;-75
2021/12/03 02:58:18;;;;;;;11.25;5.10;;;0.30;99.90;;;;;;4860870;29;20052;-73
2021/12/03 03:00:46;;;;;;;12.68;5.82;;;0.30;99.90;;;;;;4861896;29;20066;-71
2021/12/03 03:03:12;;;;;;;12.20;5.32;;;0.30;99.90;;;;;;4862756;29;20109;-73
2021/12/03 03:05:37;;;;;;;12.60;6.25;;;0.30;99.90;;;;;;4862449;29;20053;-73
2021/12/03 03:08:03;;;;;;;15.95;6.70;;;0.40;99.90;;;;;;4860777;29;20076;-78
2021/12/03 03:10:31;;;;;;;14.70;6.70;;;0.30;99.90;;;;;;4860821;29;20037;-75
2021/12/03 03:12:59;;;;;;;13.55;6.40;;;1.20;99.90;;;;;;4860678;29;20057;-80
2021/12/03 03:15:25;;;;;;;19.52;8.57;;;0.30;99.90;;;;;;4859350;29;20107;-73
2021/12/03 03:17:51;;;;;;;20.63;9.40;;;0.30;99.90;;;;;;4860668;29;20049;-73
2021/12/03 03:20:20;;;;;;;16.30;8.25;;;0.30;99.90;;;;;;4860347;29;20134;-78
2021/12/03 03:22:47;;;;;;;16.58;8.23;;;0.30;99.90;;;;;;4860005;29;20049;-73
2021/12/03 03:25:15;;;;;;;16.42;8.70;;;0.30;99.90;;;;;;4860203;29;20491;-73
2021/12/03 03:27:42;;;;;;;17.48;9.15;;;0.30;99.90;;;;;;4860478;29;20442;-73
2021/12/03 03:30:12;;;;;;;16.73;8.52;;;0.30;99.90;;;;;;4860348;29;20115;-71
2021/12/03 03:32:38;;;;;;;19.83;10.00;;;0.30;99.90;;;;;;4860588;29;20447;-73
2021/12/03 03:35:04;;;;;;;23.95;10.15;;;0.30;99.90;;;;;;4860418;29;20406;-72
2021/12/03 03:37:30;;;;;;;16.95;10.45;;;0.30;99.90;;;;;;4863710;29;20050;-72
2021/12/03 03:39:56;;;;;;;20.05;10.98;;;0.30;99.90;;;;;;4871170;29;20477;-74
2021/12/03 03:42:21;;;;;;;18.13;10.88;;;0.30;99.90;;;;;;4882128;29;20049;-77
2021/12/03 03:44:47;;;;;;;21.50;10.50;;;0.30;99.90;;;;;;4882147;29;20510;-77
2021/12/03 03:47:13;;;;;;;18.00;10.57;;;0.30;99.90;;;;;;4882316;29;20059;-80
2021/12/03 03:49:39;;;;;;;17.10;10.30;;;0.30;99.90;;;;;;4882201;29;20523;-72
2021/12/03 03:52:06;;;;;;;22.88;11.48;;;0.30;99.90;;;;;;4882138;29;20573;-74
2021/12/03 03:54:32;;;;;;;19.80;9.93;;;0.30;99.90;;;;;;4881551;29;20502;-74
2021/12/03 03:56:59;;;;;;;17.15;9.52;;;0.30;99.90;;;;;;4882181;29;20060;-72
2021/12/03 03:59:24;;;;;;;20.25;10.02;;;0.20;99.90;;;;;;4882108;29;20051;-72
2021/12/03 04:01:51;;;;;;;20.92;10.70;;;0.20;99.90;;;;;;4881859;29;20049;-75
2021/12/03 04:04:18;;;;;;;17.95;9.10;;;0.20;99.90;;;;;;4882127;29;20048;-73
2021/12/03 04:06:44;;;;;;;18.48;8.95;;;0.20;99.90;;;;;;4882005;29;20053;-72
2021/12/03 04:09:11;;;;;;;19.05;10.65;;;0.20;99.90;;;;;;4881957;29;20059;-73
2021/12/03 04:11:38;;;;;;;21.33;9.00;;;0.20;99.90;;;;;;4881328;29;20561;-73
2021/12/03 04:14:04;;;;;;;16.60;10.55;;;0.20;99.90;;;;;;4883835;29;20370;-72
2021/12/03 04:16:31;;;;;;;18.98;10.13;;;0.20;99.90;;;;;;4881789;29;20055;-73
2021/12/03 04:18:58;;;;;;;19.63;10.40;;;0.20;99.90;;;;;;4881826;29;20053;-73
2021/12/03 04:21:24;;;;;;;19.13;10.27;;;0.90;99.90;;;;;;4864939;29;20128;-74
2021/12/03 04:23:50;;;;;;;20.70;10.63;;;0.10;99.90;;;;;;4880609;29;20132;-75
2021/12/03 04:26:16;;;;;;;18.40;10.18;;;0.20;99.90;;;;;;4880972;29;20053;-77
2021/12/03 04:28:42;;;;;;;17.55;9.50;;;0.60;99.90;;;;;;4881409;29;20037;-77
2021/12/03 04:31:08;;;;;;;20.55;11.10;;;0.10;99.90;;;;;;4881413;29;20057;-72
2021/12/03 04:33:34;;;;;;;20.40;11.38;;;0.10;99.90;;;;;;4881673;29;20053;-72
2021/12/03 04:35:59;;;;;;;22.30;10.25;;;0.10;99.90;;;;;;4881443;29;20052;-73
2021/12/03 04:38:25;;;;;;;19.10;10.38;;;0.10;99.90;;;;;;4881441;29;20342;-73
2021/12/03 04:40:51;;;;;;;21.48;11.75;;;0.10;99.90;;;;;;4881148;29;20410;-74
2021/12/03 04:43:17;;;;;;;20.27;10.57;;;0.20;99.90;;;;;;4863936;29;20045;-73
2021/12/03 04:45:43;;;;;;;20.73;11.57;;;0.10;99.90;;;;;;4880917;29;20060;-74
2021/12/03 04:48:09;;;;;;;20.27;10.20;;;0.10;99.90;;;;;;4880694;29;20482;-73
2021/12/03 04:50:38;;;;;;;18.92;10.70;;;0.10;99.90;;;;;;4881298;29;20045;-81
2021/12/03 04:53:05;;;;;;;18.42;9.82;;;0.10;99.90;;;;;;4880979;29;20500;-77
2021/12/03 04:55:32;;;;;;;21.60;12.90;;;0.10;99.90;;;;;;4881047;29;20132;-77
2021/12/03 04:57:57;;;;;;;17.58;9.95;;;0.60;99.90;;;;;;4864138;29;20060;-77
2021/12/03 05:00:33;;;;;;;20.92;10.93;;;0.10;99.90;;;;;;4880781;29;20045;-76
2021/12/03 05:03:00;;;;;;;18.20;10.68;;;0.10;99.90;;;;;;4864454;29;20370;-72
2021/12/03 05:05:31;;;;;;;19.83;10.20;;;0.10;99.90;;;;;;4881014;29;20060;-78
2021/12/03 05:07:58;;;;;;;24.40;11.27;;;0.10;99.90;;;;;;4880942;29;20056;-75
2021/12/03 05:10:27;;;;;;;20.27;12.07;;;0.10;99.90;;;;;;4881022;29;20059;-75
2021/12/03 05:12:57;;;;;;;17.48;10.93;;;0.10;99.90;;;;;;4880734;29;20386;-75
2021/12/03 05:15:24;;;;;;;19.92;11.45;;;0.10;99.90;;;;;;4880462;29;20057;-72
2021/12/03 05:17:49;;;;;;;22.08;11.75;;;0.10;99.90;;;;;;4880539;29;20509;-77
2021/12/03 05:20:15;;;;;;;16.40;9.98;;;1.20;99.90;;;;;;4863726;29;20053;-76
2021/12/03 05:22:41;;;;;;;16.55;9.65;;;0.00;99.90;;;;;;4863940;29;20059;-76
2021/12/03 05:25:08;;;;;;;20.95;10.70;;;0.00;99.90;;;;;;4880590;29;20049;-77
2021/12/03 05:27:33;;;;;;;19.15;10.52;;;0.00;99.90;;;;;;4880517;29;20056;-73
2021/12/03 05:30:03;;;;;;;20.98;10.73;;;0.00;99.90;;;;;;4879887;29;20128;-72
2021/12/03 05:32:28;;;;;;;18.55;9.90;;;0.00;99.90;;;;;;4880124;29;20087;-77
2021/12/03 05:34:54;;;;;;;16.75;10.18;;;0.10;99.90;;;;;;4863665;29;20073;-79
2021/12/03 05:37:20;;;;;;;18.30;9.57;;;0.10;99.90;;;;;;4880300;29;20049;-76
2021/12/03 05:39:45;;;;;;;17.17;9.32;;;0.10;99.90;;;;;;4879118;29;20116;-75
2021/12/03 05:42:11;;;;;;;19.55;10.35;;;0.10;99.90;;;;;;4880106;29;20052;-77
2021/12/03 05:44:37;;;;;;;17.63;10.45;;;0.10;99.90;;;;;;4879662;29;20048;-80
2021/12/03 05:47:03;;;;;;;18.52;11.13;;;0.10;99.90;;;;;;4880126;29;20549;-75
2021/12/03 05:49:28;;;;;;;20.20;10.95;;;0.10;99.90;;;;;;4880142;29;20554;-75
2021/12/03 05:51:55;;;;;;;19.08;10.30;;;0.10;99.90;;;;;;4863252;29;20057;-77
2021/12/03 05:54:21;;;;;;;18.98;10.52;;;0.10;99.90;;;;;;4880107;29;20041;-76
2021/12/03 05:56:48;;;;;;;17.52;10.45;;;0.10;99.90;;;;;;4880122;29;20560;-74
2021/12/03 05:59:14;;;;;;;17.70;10.63;;;0.10;99.90;;;;;;4879505;29;20048;-77
2021/12/03 06:01:40;;;;;;;18.13;10.57;;;0.10;99.90;;;;;;4879667;29;20060;-73
2021/12/03 06:04:06;;;;;;;23.02;11.35;;;0.20;99.90;;;;;;4879929;29;20041;-73
2021/12/03 06:06:32;;;;;;;18.38;10.07;;;0.10;99.90;;;;;;4879852;29;20051;-78
2021/12/03 06:08:58;;;;;;;21.52;10.75;;;0.20;99.90;;;;;;4879903;29;20525;-75
2021/12/03 06:11:25;;;;;;;21.08;11.07;;;0.20;99.90;;;;;;4879773;29;20080;-73
2021/12/03 06:13:50;;;;;;;18.10;11.30;;;0.20;99.90;;;;;;4879604;29;20045;-76
2021/12/03 06:16:16;;;;;;;17.80;10.25;;;0.20;99.90;;;;;;4879317;29;20184;-73
2021/12/03 06:18:42;;;;;;;19.90;10.98;;;0.20;99.90;;;;;;4862876;29;20060;-80
2021/12/03 06:21:10;;;;;;;19.25;11.07;;;0.20;99.90;;;;;;4879671;29;20167;-74
2021/12/03 06:23:36;;;;;;;21.95;10.32;;;0.20;99.90;;;;;;4879581;29;20049;-73
2021/12/03 06:26:02;;;;;;;23.48;11.27;;;0.20;99.90;;;;;;4878230;29;20528;-73
2021/12/03 06:28:30;;;;;;;20.30;11.40;;;0.20;99.90;;;;;;4879445;29;20076;-71
2021/12/03 06:30:56;;;;;;;19.42;11.20;;;0.20;99.90;;;;;;4879355;29;20988;-73
2021/12/03 06:33:22;;;;;;;20.60;11.60;;;0.20;99.90;;;;;;4877472;29;20128;-75
2021/12/03 06:35:49;;;;;;;18.02;10.82;;;0.30;99.90;;;;;;4879286;29;20177;-72
2021/12/03 06:38:16;;;;;;;20.38;12.20;;;0.20;99.90;;;;;;4878999;29;20048;-71
2021/12/03 06:40:45;;;;;;;18.58;10.70;;;0.30;99.90;;;;;;4874552;29;20049;-74
2021/12/03 06:43:12;;;;;;;25.10;12.35;;;0.30;99.90;;;;;;4851069;29;20060;-75
2021/12/03 06:45:40;;;;;;;22.90;11.57;;;0.40;99.90;;;;;;4847667;29;20463;-72
2021/12/03 06:48:05;;;;;;;21.58;12.73;;;0.40;99.90;;;;;;4860017;29;20045;-74
2021/12/03 06:50:32;;;;;;;20.13;11.07;;;0.40;99.90;;;;;;4858858;29;20050;-75
2021/12/03 06:53:17;;;;;;;24.38;12.38;;;0.40;99.90;;;;;;4860378;29;20042;-74
2021/12/03 06:55:48;;;;;;;20.98;11.68;;;0.40;99.90;;;;;;4860159;29;20140;-73
2021/12/03 06:58:16;;;;;;;18.13;11.18;;;0.40;99.90;;;;;;4860313;29;20058;-73
2021/12/03 07:00:42;;;;;;;20.50;10.27;;;0.40;99.90;;;;;;4860080;29;20132;-75
2021/12/03 07:03:08;;;;;;;25.10;11.90;;;0.40;99.90;;;;;;4860284;29;20088;-75
2021/12/03 07:05:34;;;;;;;20.02;11.82;;;0.30;99.90;;;;;;4859679;29;20524;-77
2021/12/03 07:08:00;;;;;;;22.00;12.27;;;0.60;99.90;;;;;;4859409;29;20113;-79
2021/12/03 07:10:26;;;;;;;18.80;11.65;;;0.30;99.90;;;;;;4862523;29;20058;-78
2021/12/03 07:12:52;;;;;;;25.35;12.30;;;0.30;99.90;;;;;;4864158;29;20049;-76
2021/12/03 07:15:17;;;;;;;19.13;11.27;;;0.30;99.90;;;;;;4864234;29;20049;-73
2021/12/03 07:17:43;;;;;;;22.48;11.82;;;0.30;99.90;;;;;;4864465;29;20041;-73
2021/12/03 07:20:10;;;;;;;21.55;11.43;;;0.40;99.90;;;;;;4863650;29;20049;-76
2021/12/03 07:22:36;;;;;;;25.17;12.77;;;0.40;99.90;;;;;;4862572;29;20060;-74
2021/12/03 07:25:03;;;;;;;22.67;12.60;;;0.40;99.90;;;;;;4881658;29;20482;-72
2021/12/03 07:27:28;;;;;;;20.02;11.88;;;0.40;99.90;;;;;;4880760;29;20056;-76
2021/12/03 07:29:54;;;;;;;22.30;13.52;;;0.40;99.90;;;;;;4882068;29;20402;-72
2021/12/03 07:32:42;;;;;;;24.45;14.25;;;0.40;99.90;;;;;;4881348;29;20056;-78
2021/12/03 07:35:09;;;;;;;22.95;13.48;;;0.40;99.90;;;;;;4881420;29;20498;-77
2021/12/03 07:37:36;;;;;;;22.52;12.73;;;1.40;99.90;;;;;;4881766;29;20045;-74
2021/12/03 07:40:04;;;;;;;23.92;13.60;;;0.70;99.90;;;;;;4881434;29;20180;-75
2021/12/03 07:42:31;;;;;;;27.35;14.27;;;0.60;99.90;;;;;;4881851;29;20379;-75
2021/12/03 07:44:57;;;;;;;26.30;14.45;;;0.70;99.90;;;;;;4880489;29;20053;-72
2021/12/03 07:47:22;;;;;;;26.23;13.65;;;0.70;99.90;;;;;;4881411;29;20152;-73
2021/12/03 07:49:50;;;;;;;25.38;14.80;;;0.70;99.90;;;;;;4881710;29;20074;-70
2021/12/03 07:52:18;;;;;;;25.92;14.00;;;0.70;99.90;;;;;;4880924;29;20057;-73
2021/12/03 07:54:43;;;;;;;27.48;14.07;;;0.70;99.90;;;;;;4864796;29;20049;-75
2021/12/03 07:57:09;;;;;;;25.33;14.05;;;0.70;99.90;;;;;;4864497;29;20052;-72
2021/12/03 07:59:35;;;;;;;23.30;13.52;;;0.70;99.90;;;;;;4864269;29;20148;-76
2021/12/03 08:02:00;;;;;;;26.67;14.23;;;1.70;99.90;;;;;;4864643;29;20398;-72
2021/12/03 08:04:26;;;;;;;27.52;14.43;;;0.80;99.90;;;;;;4881367;29;20064;-73
2021/12/03 08:06:54;;;;;;;27.45;14.63;;;0.80;99.90;;;;;;4881124;29;20386;-74
2021/12/03 08:09:20;;;;;;;25.83;14.05;;;0.80;99.90;;;;;;4881360;29;20108;-77
2021/12/03 08:11:46;;;;;;;24.10;13.40;;;0.80;99.90;;;;;;4881312;29;20096;-75
2021/12/03 08:14:12;;;;;;;25.88;13.35;;;0.80;99.90;;;;;;4881014;29;20486;-78
2021/12/03 08:16:39;;;;;;;27.40;14.70;;;0.80;99.90;;;;;;4881385;29;20101;-75
2021/12/03 08:19:05;;;;;;;24.13;12.55;;;0.80;99.90;;;;;;4879957;29;20509;-76
2021/12/03 08:21:31;;;;;;;25.15;13.18;;;0.80;99.90;;;;;;4879322;29;20056;-76
2021/12/03 08:23:57;;;;;;;25.63;13.30;;;0.90;99.90;;;;;;4880686;29;20053;-76
2021/12/03 08:26:22;;;;;;;28.63;15.55;;;0.90;99.90;;;;;;4880485;29;20131;-76
2021/12/03 08:28:48;;;;;;;33.38;15.88;;;0.90;99.90;;;;;;4881116;29;20177;-77
2021/12/03 08:31:15;;;;;;;28.02;14.48;;;0.90;99.90;;;;;;4880510;29;20053;-76
2021/12/03 08:33:42;;;;;;;30.08;13.93;;;0.90;99.90;;;;;;4875169;29;20049;-74
2021/12/03 08:36:08;;;;;;;27.20;15.00;;;1.00;99.90;;;;;;4858533;29;20383;-72
2021/12/03 08:38:34;;;;;;;30.33;14.85;;;0.90;99.90;;;;;;4866270;29;20049;-72
2021/12/03 08:41:00;;;;;;;29.95;15.77;;;1.00;99.90;;;;;;4874306;29;20524;-74
2021/12/03 08:43:28;;;;;;;29.55;16.20;;;1.00;99.90;;;;;;4879761;29;20045;-78
2021/12/03 08:45:55;;;;;;;35.08;15.57;;;1.00;99.90;;;;;;4873731;29;20577;-72
2021/12/03 08:48:26;;;;;;;30.98;16.85;;;1.10;99.90;;;;;;4862253;29;20075;-77
2021/12/03 08:51:12;;;;;;;30.50;16.13;;;1.10;99.90;;;;;;4879168;29;20060;-73
2021/12/03 08:56:21;;;;;;;32.47;16.27;;;1.20;99.90;;;;;;4875800;29;20049;-74
2021/12/03 08:58:47;;;;;;;34.55;17.95;;;1.20;99.90;;;;;;4860064;29;20045;-77
2021/12/03 09:01:14;;;;;;;29.75;17.35;;;1.30;99.90;;;;;;4870483;29;20624;-78
2021/12/03 09:03:40;;;;;;;34.08;18.92;;;1.30;99.90;;;;;;4859311;29;20493;-73
2021/12/03 09:06:06;;;;;;;34.80;16.38;;;1.40;99.90;;;;;;4871452;29;20421;-73
2021/12/03 09:08:32;;;;;;;32.63;17.95;;;1.50;99.90;;;;;;4871967;29;20054;-71
2021/12/03 09:10:57;;;;;;;38.30;19.45;;;1.50;99.90;;;;;;4874923;29;20065;-71
2021/12/03 09:13:23;;;;;;;37.08;19.60;;;1.60;99.90;;;;;;4871232;29;20056;-75
2021/12/03 09:15:58;;;;;;;40.28;20.35;;;1.60;99.90;;;;;;4865774;29;20071;-74
2021/12/03 09:18:36;;;;;;;36.63;19.42;;;1.60;99.90;;;;;;4861760;29;20045;-73
2021/12/03 09:21:17;;;;;;;38.78;19.23;;;1.70;99.90;;;;;;4875771;29;20052;-70
2021/12/03 09:26:28;;;;;;;41.95;20.10;;;1.70;99.90;;;;;;4872438;29;20058;-75
2021/12/03 09:29:05;;;;;;;42.60;20.35;;;1.80;99.90;;;;;;4871673;29;20040;-71
2021/12/03 09:31:34;;;;;;;41.25;19.63;;;1.80;99.90;;;;;;4878062;29;20405;-71
2021/12/03 09:34:00;;;;;;;47.65;20.00;;;1.80;99.90;;;;;;4877671;29;20053;-70
2021/12/03 09:36:26;;;;;;;41.30;20.63;;;1.80;99.90;;;;;;4859373;29;20063;-73
2021/12/03 09:38:52;;;;;;;43.05;20.85;;;1.80;99.90;;;;;;4862363;29;20053;-72
2021/12/03 09:41:19;;;;;;;41.83;20.85;;;1.80;99.90;;;;;;4876943;29;20473;-74
2021/12/03 09:43:49;;;;;;;45.58;20.25;;;1.80;99.90;;;;;;4877709;29;20458;-71
2021/12/03 09:46:22;;;;;;;40.05;21.08;;;1.80;99.90;;;;;;4874965;29;20049;-74
2021/12/03 09:57:08;;;;;;;43.20;20.95;;;1.90;99.90;;;;;;4876445;29;20052;-73
2021/12/03 10:05:18;;;;;;;57.42;21.67;;;2.00;99.90;;;;;;4876797;29;20053;-73
2021/12/03 10:11:04;;;;;;;42.25;21.10;;;3.00;99.90;;;;;;4877500;29;20053;-71
2021/12/03 10:13:19;;;;;;;39.00;19.67;;;2.10;99.90;;;;;;4876357;29;20087;-73
2021/12/03 10:18:51;;;;;;;44.25;19.67;;;2.20;99.90;;;;;;4838028;29;20125;-74
2021/12/03 10:39:16;;;;;;;41.20;17.75;;;2.40;99.90;;;;;;4782666;30;20119;-74
2021/12/03 10:44:33;;;;;;;37.05;17.13;;;2.50;99.90;;;;;;4780807;30;20179;-79
2021/12/03 10:47:08;;;;;;;36.17;15.95;;;3.50;99.90;;;;;;4768556;30;20058;-70
2021/12/03 11:05:52;;;;;;;33.33;15.05;;;2.60;99.90;;;;;;4874726;29;20056;-75
2021/12/03 11:29:59;;;;;;;32.47;10.88;;;2.60;99.90;;;;;;4837507;29;20062;-73
2021/12/03 11:44:11;;;;;;;20.33;7.97;;;2.60;99.90;;;;;;4821275;29;20397;-73
2021/12/03 11:57:12;;;;;;;17.15;6.75;;;2.50;99.90;;;;;;4810075;29;20199;-72
2021/12/03 14:27:07;;;;;;;22.83;8.25;;;2.50;99.90;;;;;;4875437;29;20045;-73
2021/12/03 14:41:12;;;;;;;19.43;8.53;;;2.60;99.90;;;;;;4876830;29;20053;-70
2021/12/03 14:44:18;;;;;;;19.33;8.07;;;3.50;99.90;;;;;;4876464;29;20072;-72
2021/12/03 14:54:54;;;;;;;23.08;8.35;;;2.70;99.90;;;;;;4853507;29;20068;-73
2021/12/03 15:00:23;;;;;;;17.45;7.07;;;2.70;99.90;;;;;;4856478;29;20414;-73
2021/12/03 15:08:32;;;;;;;18.58;6.40;;;2.80;99.90;;;;;;4856077;29;20141;-71
2021/12/03 15:24:55;;;;;;;20.35;6.53;;;3.00;99.90;;;;;;4840537;29;20499;-75
2021/12/03 15:27:30;;;;;;;17.30;6.75;;;3.30;99.90;;;;;;4864406;29;20056;-70
2021/12/03 15:32:56;;;;;;;14.30;5.35;;;3.00;99.90;;;;;;4879459;29;20466;-69
2021/12/03 15:35:31;;;;;;;12.77;4.45;;;3.50;99.90;;;;;;4878824;29;20053;-76
2021/12/03 16:04:35;;;;;;;13.18;5.93;;;3.20;99.90;;;;;;4876422;29;20592;-77
2021/12/03 16:12:26;;;;;;;11.32;5.30;;;3.30;99.90;;;;;;4877861;29;20057;-71
2021/12/03 16:44:32;;;;;;;12.55;6.25;;;3.40;99.90;;;;;;4880186;29;20053;-67
2021/12/03 16:52:33;;;;;;;13.30;6.30;;;3.80;99.90;;;;;;4880777;29;20088;-76
2021/12/03 16:55:01;;;;;;;14.20;7.07;;;3.30;99.90;;;;;;4880949;29;20481;-72
2021/12/03 16:57:35;;;;;;;15.52;6.80;;;3.50;99.90;;;;;;4880721;29;20049;-75
2021/12/03 17:00:16;;;;;;;12.77;6.43;;;4.90;99.90;;;;;;4880685;29;20052;-73
2021/12/03 17:03:05;;;;;;;14.45;6.80;;;3.30;99.90;;;;;;4880272;29;20084;-74
2021/12/03 17:08:38;;;;;;;15.13;6.57;;;3.30;99.90;;;;;;4880287;29;20123;-73
2021/12/03 17:11:31;;;;;;;14.68;7.10;;;3.30;99.90;;;;;;4880405;29;20049;-72
2021/12/03 17:56:31;;;;;;;14.07;6.78;;;3.50;99.90;;;;;;4857731;29;20543;-71
2021/12/03 17:59:16;;;;;;;16.23;7.65;;;3.40;99.90;;;;;;4857938;29;20049;-72
2021/12/03 18:01:52;;;;;;;14.27;7.40;;;3.40;99.90;;;;;;4854642;29;20085;-71
2021/12/03 18:04:26;;;;;;;14.98;7.43;;;3.40;99.90;;;;;;4859381;29;20045;-73
2021/12/03 18:13:03;;;;;;;14.35;6.72;;;3.40;99.90;;;;;;4819663;29;20055;-71
2021/12/03 18:16:00;;;;;;;14.47;7.57;;;3.40;99.90;;;;;;4817898;29;20046;-68
2021/12/03 18:57:56;;;;;;;19.73;8.75;;;3.60;99.90;;;;;;4875057;29;20074;-70
2021/12/03 19:00:25;;;;;;;16.73;8.25;;;3.70;99.90;;;;;;4844232;29;20053;-72
2021/12/03 19:02:53;;;;;;;17.45;8.05;;;4.10;99.90;;;;;;4859117;29;20057;-73
2021/12/03 19:05:33;;;;;;;20.15;9.25;;;3.70;99.90;;;;;;4860920;29;20442;-71
2021/12/03 19:08:09;;;;;;;20.35;8.73;;;3.70;99.90;;;;;;4847548;29;20057;-71
2021/12/03 19:10:41;;;;;;;17.70;7.93;;;3.70;99.90;;;;;;4863340;29;20072;-72
2021/12/03 19:13:11;;;;;;;18.05;8.13;;;3.70;99.90;;;;;;4862990;29;20105;-72
2021/12/03 19:15:40;;;;;;;18.08;8.15;;;3.80;99.90;;;;;;4847441;29;20060;-72
2021/12/03 19:18:06;;;;;;;17.70;8.90;;;3.80;99.90;;;;;;4863160;29;20057;-73
2021/12/03 19:20:36;;;;;;;21.80;9.13;;;3.80;99.90;;;;;;4859995;29;20561;-71
2021/12/03 19:23:02;;;;;;;21.02;9.82;;;3.80;99.90;;;;;;4881515;29;20136;-75
2021/12/03 19:25:28;;;;;;;26.67;13.20;;;3.80;99.90;;;;;;4881500;29;20052;-72
2021/12/03 19:27:54;;;;;;;19.33;9.55;;;3.80;99.90;;;;;;4882035;29;20045;-72
2021/12/03 19:30:20;;;;;;;19.83;9.57;;;3.80;99.90;;;;;;4880510;29;20063;-74
2021/12/03 19:32:46;;;;;;;18.17;8.77;;;3.80;99.90;;;;;;4865823;29;20060;-72
2021/12/03 19:35:13;;;;;;;23.00;8.75;;;3.80;99.90;;;;;;4882464;29;20490;-72
2021/12/03 19:37:39;;;;;;;20.95;9.73;;;3.80;99.90;;;;;;4880929;29;20048;-72
2021/12/03 19:40:08;;;;;;;21.75;9.50;;;5.50;99.90;;;;;;4881726;29;20099;-73
2021/12/03 19:42:39;;;;;;;23.23;9.25;;;3.80;99.90;;;;;;4882022;29;20067;-70
2021/12/03 19:45:07;;;;;;;23.83;9.68;;;3.90;99.90;;;;;;4882117;29;20053;-70
2021/12/03 19:47:48;;;;;;;20.35;9.60;;;3.90;99.90;;;;;;4865595;29;20057;-73
2021/12/03 19:53:02;;;;;;;23.02;10.13;;;3.90;99.90;;;;;;4881681;29;20093;-72
2021/12/03 19:55:28;;;;;;;22.42;10.20;;;4.00;99.90;;;;;;4881704;29;20112;-72
2021/12/03 19:57:54;;;;;;;22.17;9.60;;;3.90;99.90;;;;;;4881831;29;20458;-72
2021/12/03 20:00:23;;;;;;;23.30;10.35;;;4.40;99.90;;;;;;4881874;29;20077;-72
2021/12/03 20:02:49;;;;;;;23.90;10.75;;;3.90;99.90;;;;;;4881878;29;20057;-71
2021/12/03 20:05:14;;;;;;;22.50;9.90;;;3.90;99.90;;;;;;4881707;29;20062;-72
2021/12/03 20:07:40;;;;;;;21.15;10.10;;;3.90;99.90;;;;;;4881747;29;20413;-72
2021/12/03 20:10:16;;;;;;;22.48;9.93;;;3.90;99.90;;;;;;4881108;29;20061;-74
2021/12/03 20:12:46;;;;;;;23.05;9.93;;;3.90;99.90;;;;;;4864523;29;20080;-69
2021/12/03 20:15:18;;;;;;;21.58;10.43;;;3.90;99.90;;;;;;4880485;29;20060;-69
2021/12/03 20:17:52;;;;;;;25.25;10.43;;;3.90;99.90;;;;;;4880552;29;20049;-75
2021/12/03 20:20:18;;;;;;;21.08;9.80;;;4.00;99.90;;;;;;4881430;29;20057;-70
2021/12/03 20:28:11;;;;;;;24.50;10.57;;;3.90;99.90;;;;;;4881183;29;20061;-75
2021/12/03 20:31:03;;;;;;;19.92;9.50;;;4.00;99.90;;;;;;4880225;29;20051;-74